createdAt,value
2022-08-27T00:01:22.795Z,3.37
2022-08-27T00:03:52.412Z,3.60
2022-08-27T00:06:20.642Z,3.70
2022-08-27T00:08:48.866Z,3.33
2022-08-27T00:11:17.224Z,4.00
2022-08-27T00:13:44.878Z,4.07
2022-08-27T00:16:13.548Z,3.77
2022-08-27T00:18:41.796Z,3.93
2022-08-27T00:21:10.856Z,4.60
2022-08-27T00:23:38.713Z,3.57
2022-08-27T00:26:07.084Z,4.17
2022-08-27T00:28:35.242Z,4.67
2022-08-27T00:31:02.839Z,4.10
2022-08-27T00:33:31.536Z,4.40
2022-08-27T00:35:59.259Z,4.10
2022-08-27T00:38:28.687Z,4.43
2022-08-27T00:40:56.559Z,4.47
2022-08-27T00:43:24.887Z,4.30
2022-08-27T00:45:54.616Z,4.30
2022-08-27T00:48:25.104Z,4.50
2022-08-27T00:50:54.209Z,4.30
2022-08-27T00:53:23.614Z,4.40
2022-08-27T00:55:54.492Z,4.70
2022-08-27T00:58:26.666Z,4.63
2022-08-27T01:00:54.717Z,4.47
2022-08-27T01:03:22.747Z,4.43
2022-08-27T01:05:51.303Z,4.97
2022-08-27T01:08:20.322Z,4.80
2022-08-27T01:10:48.738Z,4.97
2022-08-27T01:13:19.904Z,5.03
2022-08-27T01:15:47.703Z,5.20
2022-08-27T01:18:15.876Z,5.27
2022-08-27T01:20:45.107Z,5.40
2022-08-27T01:23:23.496Z,5.00
2022-08-27T01:25:52.635Z,5.30
2022-08-27T01:28:21.779Z,5.53
2022-08-27T01:30:51.207Z,5.57
2022-08-27T01:33:20.974Z,4.33
2022-08-27T01:35:49.431Z,3.57
2022-08-27T01:38:19.156Z,3.43
2022-08-27T01:41:00.257Z,3.37
2022-08-27T01:43:28.209Z,3.30
2022-08-27T01:45:55.786Z,2.93
2022-08-27T01:48:23.568Z,2.90
2022-08-27T01:50:51.335Z,2.93
2022-08-27T01:53:20.160Z,2.87
2022-08-27T01:55:48.600Z,2.73
2022-08-27T01:58:17.979Z,2.80
2022-08-27T02:00:46.759Z,2.60
2022-08-27T02:03:17.740Z,2.87
2022-08-27T02:05:46.008Z,2.50
2022-08-27T02:08:15.816Z,2.80
2022-08-27T02:10:44.228Z,2.67
2022-08-27T02:13:13.216Z,3.33
2022-08-27T02:15:43.007Z,3.40
2022-08-27T02:18:11.425Z,3.30
2022-08-27T02:20:39.102Z,3.30
2022-08-27T02:23:06.711Z,3.13
2022-08-27T02:25:34.725Z,2.77
2022-08-27T02:28:02.616Z,2.60
2022-08-27T02:30:31.938Z,2.67
2022-08-27T02:33:01.113Z,2.60
2022-08-27T02:35:29.697Z,2.10
2022-08-27T02:37:57.364Z,1.77
2022-08-27T02:40:25.785Z,2.20
2022-08-27T02:42:53.723Z,2.10
2022-08-27T02:45:21.421Z,2.30
2022-08-27T02:47:49.492Z,2.07
2022-08-27T02:50:18.463Z,1.97
2022-08-27T02:52:46.601Z,1.87
2022-08-27T02:55:17.296Z,2.10
2022-08-27T02:57:45.485Z,2.27
2022-08-27T03:00:16.571Z,3.00
2022-08-27T03:02:44.753Z,2.00
2022-08-27T03:05:13.454Z,2.00
2022-08-27T03:07:42.684Z,2.00
2022-08-27T03:10:11.982Z,1.97
2022-08-27T03:12:39.582Z,1.90
2022-08-27T03:15:08.586Z,2.37
2022-08-27T03:17:54.007Z,1.90
2022-08-27T03:20:21.850Z,2.07
2022-08-27T03:22:50.820Z,1.93
2022-08-27T03:25:18.823Z,2.00
2022-08-27T03:27:46.522Z,2.30
2022-08-27T03:30:15.867Z,2.20
2022-08-27T03:32:43.624Z,2.23
2022-08-27T03:35:11.608Z,2.17
2022-08-27T03:37:39.193Z,2.17
2022-08-27T03:40:09.514Z,2.00
2022-08-27T03:42:38.445Z,1.90
2022-08-27T03:45:06.877Z,2.27
2022-08-27T03:47:34.594Z,2.27
2022-08-27T03:50:02.215Z,1.80
2022-08-27T03:52:29.988Z,1.90
2022-08-27T03:54:59.357Z,2.47
2022-08-27T03:57:28.628Z,2.20
2022-08-27T03:59:56.925Z,2.33
2022-08-27T04:02:24.975Z,2.40
2022-08-27T04:04:52.595Z,2.30
2022-08-27T04:07:20.248Z,2.10
2022-08-27T04:09:47.934Z,2.20
2022-08-27T04:12:15.533Z,2.30
2022-08-27T04:14:44.473Z,2.30
2022-08-27T04:17:12.067Z,2.60
2022-08-27T04:19:39.670Z,2.70
2022-08-27T04:22:07.855Z,2.60
2022-08-27T04:24:36.451Z,2.30
2022-08-27T04:27:04.903Z,2.53
2022-08-27T04:29:32.650Z,2.60
2022-08-27T04:32:01.624Z,2.80
2022-08-27T04:34:29.247Z,2.87
2022-08-27T04:36:57.659Z,2.60
2022-08-27T04:39:25.902Z,3.37
2022-08-27T04:41:54.909Z,2.47
2022-08-27T04:44:22.999Z,2.83
2022-08-27T04:46:51.962Z,2.57
2022-08-27T04:49:20.923Z,3.30
2022-08-27T04:51:48.522Z,3.40
2022-08-27T04:54:16.158Z,3.40
2022-08-27T04:56:44.859Z,3.50
2022-08-27T04:59:12.803Z,3.30
2022-08-27T05:01:41.598Z,3.20
2022-08-27T05:04:09.960Z,2.70
2022-08-27T05:06:38.920Z,2.90
2022-08-27T05:09:06.599Z,3.07
2022-08-27T05:11:34.812Z,3.43
2022-08-27T05:14:03.629Z,4.10
2022-08-27T05:16:31.708Z,3.40
2022-08-27T05:18:59.824Z,3.30
2022-08-27T05:21:28.546Z,3.50
2022-08-27T05:23:58.666Z,3.73
2022-08-27T05:26:26.343Z,3.20
2022-08-27T05:28:53.979Z,3.30
2022-08-27T05:31:22.552Z,3.33
2022-08-27T05:33:50.525Z,3.10
2022-08-27T05:36:19.680Z,3.77
2022-08-27T05:38:48.923Z,3.50
2022-08-27T05:41:18.816Z,4.00
2022-08-27T05:43:50.238Z,4.20
2022-08-27T05:46:20.110Z,4.73
2022-08-27T05:48:47.929Z,4.60
2022-08-27T05:51:22.545Z,4.17
2022-08-27T05:53:56.336Z,4.23
2022-08-27T05:56:25.899Z,4.00
2022-08-27T05:59:10.988Z,3.67
2022-08-27T06:01:39.449Z,4.00
2022-08-27T06:04:07.377Z,4.10
2022-08-27T06:06:35.805Z,4.70
2022-08-27T06:09:04.068Z,3.97
2022-08-27T06:11:33.067Z,4.63
2022-08-27T06:14:00.657Z,4.53
2022-08-27T06:16:28.312Z,4.83
2022-08-27T06:18:57.233Z,4.90
2022-08-27T06:21:25.068Z,6.27
2022-08-27T06:23:52.998Z,5.40
2022-08-27T06:26:21.072Z,6.10
2022-08-27T06:28:50.281Z,6.00
2022-08-27T06:31:18.840Z,6.47
2022-08-27T06:33:47.148Z,5.93
2022-08-27T06:36:15.550Z,5.33
2022-08-27T06:38:43.646Z,5.70
2022-08-27T06:41:16.312Z,5.87
2022-08-27T06:43:52.420Z,6.13
2022-08-27T06:46:21.975Z,5.57
2022-08-27T06:48:51.984Z,6.50
2022-08-27T06:51:20.625Z,5.93
2022-08-27T06:53:48.740Z,7.07
2022-08-27T06:56:16.846Z,6.30
2022-08-27T06:58:44.899Z,6.30
2022-08-27T07:01:14.842Z,5.70
2022-08-27T07:03:43.484Z,6.43
2022-08-27T07:06:11.641Z,6.30
2022-08-27T07:08:40.110Z,6.70
2022-08-27T07:11:08.291Z,6.57
2022-08-27T07:13:35.903Z,7.00
2022-08-27T07:16:05.825Z,7.17
2022-08-27T07:18:35.536Z,8.20
2022-08-27T07:21:04.077Z,7.33
2022-08-27T07:23:31.850Z,7.90
2022-08-27T07:25:59.564Z,8.37
2022-08-27T07:28:27.208Z,8.13
2022-08-27T07:30:55.138Z,7.27
2022-08-27T07:33:22.790Z,7.97
2022-08-27T07:35:51.983Z,7.40
2022-08-27T07:38:19.777Z,7.13
2022-08-27T07:40:47.373Z,6.90
2022-08-27T07:43:32.494Z,6.50
2022-08-27T07:46:02.224Z,7.97
2022-08-27T07:48:30.851Z,7.57
2022-08-27T07:51:00.188Z,7.00
2022-08-27T07:53:27.760Z,7.37
2022-08-27T07:55:55.724Z,6.93
2022-08-27T07:58:23.291Z,6.63
2022-08-27T08:00:50.855Z,6.60
2022-08-27T08:03:19.692Z,6.73
2022-08-27T08:05:49.052Z,6.10
2022-08-27T08:08:17.991Z,6.57
2022-08-27T08:10:45.574Z,5.80
2022-08-27T08:13:13.139Z,6.33
2022-08-27T08:15:40.729Z,6.33
2022-08-27T08:18:08.329Z,6.00
2022-08-27T08:20:56.554Z,6.50
2022-08-27T08:23:24.825Z,6.07
2022-08-27T08:25:52.460Z,6.90
2022-08-27T08:28:20.075Z,6.20
2022-08-27T08:30:47.903Z,7.53
2022-08-27T08:33:17.030Z,7.50
2022-08-27T08:35:44.612Z,8.07
2022-08-27T08:38:12.422Z,8.10
2022-08-27T08:40:43.531Z,7.80
2022-08-27T08:43:14.165Z,7.97
2022-08-27T08:45:43.366Z,7.80
2022-08-27T08:48:13.075Z,8.73
2022-08-27T08:50:46.111Z,7.77
2022-08-27T08:53:19.913Z,6.77
2022-08-27T08:55:52.465Z,7.33
2022-08-27T08:58:27.675Z,6.80
2022-08-27T09:01:00.380Z,6.13
2022-08-27T09:03:28.607Z,6.80
2022-08-27T09:05:59.479Z,6.70
2022-08-27T09:08:34.453Z,6.63
2022-08-27T09:11:07.584Z,6.80
2022-08-27T09:13:37.822Z,7.10
2022-08-27T09:16:05.800Z,6.50
2022-08-27T09:18:35.415Z,7.20
2022-08-27T09:21:09.818Z,7.93
2022-08-27T09:23:41.392Z,7.17
2022-08-27T09:26:19.268Z,8.13
2022-08-27T09:29:04.400Z,8.23
2022-08-27T09:31:36.250Z,8.07
2022-08-27T09:34:05.627Z,7.40
2022-08-27T09:36:33.455Z,8.80
2022-08-27T09:39:02.127Z,7.20
2022-08-27T09:41:33.450Z,7.77
2022-08-27T09:44:02.992Z,7.80
2022-08-27T09:46:31.128Z,7.97
2022-08-27T09:48:58.797Z,7.63
2022-08-27T09:51:27.282Z,7.90
2022-08-27T09:53:56.151Z,8.57
2022-08-27T09:56:27.317Z,7.97
2022-08-27T09:59:00.901Z,7.90
2022-08-27T10:01:29.429Z,7.00
2022-08-27T10:04:04.388Z,7.47
2022-08-27T10:06:32.516Z,7.40
2022-08-27T10:09:07.136Z,7.67
2022-08-27T10:11:36.903Z,7.83
2022-08-27T10:14:12.942Z,7.47
2022-08-27T10:16:52.616Z,7.97
2022-08-27T10:19:27.672Z,10.73
2022-08-27T10:21:58.195Z,7.47
2022-08-27T10:24:31.479Z,7.63
2022-08-27T10:27:04.307Z,6.67
2022-08-27T10:29:36.900Z,6.87
2022-08-27T10:32:09.110Z,6.20
2022-08-27T10:34:43.371Z,6.50
2022-08-27T10:37:16.420Z,7.30
2022-08-27T10:39:52.769Z,6.70
2022-08-27T10:42:24.138Z,6.50
2022-08-27T10:45:05.109Z,6.53
2022-08-27T10:47:37.335Z,6.07
2022-08-27T10:50:07.542Z,6.00
2022-08-27T10:52:38.455Z,5.40
2022-08-27T10:55:12.617Z,5.50
2022-08-27T10:58:01.185Z,5.83
2022-08-27T11:00:33.899Z,6.07
2022-08-27T11:03:03.640Z,6.40
2022-08-27T11:05:32.603Z,5.97
2022-08-27T11:08:03.451Z,5.72
2022-08-27T11:10:32.064Z,5.50
2022-08-27T11:13:00.943Z,5.80
2022-08-27T11:15:30.005Z,5.57
2022-08-27T11:18:02.640Z,5.60
2022-08-27T11:20:31.947Z,6.20
2022-08-27T11:23:04.288Z,4.93
2022-08-27T11:25:36.958Z,4.90
2022-08-27T11:28:05.643Z,4.97
2022-08-27T11:30:44.963Z,4.97
2022-08-27T11:33:18.436Z,4.25
2022-08-27T11:35:52.364Z,4.30
2022-08-27T11:38:30.535Z,4.30
2022-08-27T11:41:06.743Z,4.10
2022-08-27T11:43:35.655Z,4.45
2022-08-27T11:46:04.517Z,4.78
2022-08-27T11:48:34.511Z,5.38
2022-08-27T11:51:02.996Z,5.13
2022-08-27T11:53:52.073Z,5.00
2022-08-27T11:56:22.182Z,6.10
2022-08-27T11:58:52.527Z,6.13
2022-08-27T12:01:25.903Z,6.90
2022-08-27T12:04:03.133Z,6.38
2022-08-27T12:06:41.127Z,6.68
2022-08-27T12:09:15.588Z,6.88
2022-08-27T12:11:48.638Z,5.93
2022-08-27T12:14:21.730Z,5.97
2022-08-27T12:16:55.146Z,5.40
2022-08-27T12:19:45.103Z,6.25
2022-08-27T12:22:18.211Z,6.28
2022-08-27T12:24:50.275Z,5.72
2022-08-27T12:27:31.939Z,5.93
2022-08-27T12:29:59.919Z,6.13
2022-08-27T12:32:29.903Z,6.20
2022-08-27T12:35:04.897Z,7.25
2022-08-27T12:37:36.075Z,7.10
2022-08-27T12:40:09.003Z,9.55
2022-08-27T12:42:36.820Z,7.18
2022-08-27T12:45:04.756Z,7.40
2022-08-27T12:47:35.419Z,7.45
2022-08-27T12:50:04.626Z,7.60
2022-08-27T12:52:42.991Z,8.57
2022-08-27T12:55:16.316Z,8.65
2022-08-27T12:57:47.697Z,9.18
2022-08-27T13:00:19.152Z,7.90
2022-08-27T13:02:55.384Z,7.97
2022-08-27T13:05:24.752Z,8.23
2022-08-27T13:07:53.204Z,8.10
2022-08-27T13:10:21.818Z,8.57
2022-08-27T13:12:50.023Z,7.03
2022-08-27T13:15:20.234Z,8.30
2022-08-27T13:17:47.978Z,8.55
2022-08-27T13:20:17.276Z,8.98
2022-08-27T13:22:47.028Z,8.30
2022-08-27T13:25:22.307Z,8.02
2022-08-27T13:27:53.358Z,7.63
2022-08-27T13:30:35.725Z,7.70
2022-08-27T13:33:05.109Z,8.43
2022-08-27T13:35:32.758Z,8.15
2022-08-27T13:38:02.964Z,7.97
2022-08-27T13:40:34.862Z,8.40
2022-08-27T13:43:07.748Z,8.25
2022-08-27T13:45:36.655Z,8.18
2022-08-27T13:48:06.047Z,9.27
2022-08-27T13:50:34.927Z,8.65
2022-08-27T13:53:25.182Z,9.38
2022-08-27T13:55:54.394Z,10.65
2022-08-27T13:58:25.108Z,10.00
2022-08-27T14:00:52.774Z,9.20
2022-08-27T14:03:30.430Z,8.35
2022-08-27T14:05:58.145Z,7.65
2022-08-27T14:08:29.123Z,7.70
2022-08-27T14:11:00.043Z,8.05
2022-08-27T14:13:28.713Z,8.07
2022-08-27T14:15:57.402Z,7.60
2022-08-27T14:18:48.115Z,7.15
2022-08-27T14:21:14.227Z,6.85
2022-08-27T14:23:43.219Z,6.80
2022-08-27T14:26:10.779Z,8.27
2022-08-27T14:28:38.379Z,7.45
2022-08-27T14:31:06.087Z,8.23
2022-08-27T14:33:33.703Z,7.80
2022-08-27T14:36:01.340Z,7.97
2022-08-27T14:38:31.902Z,8.23
2022-08-27T14:41:00.885Z,7.90
2022-08-27T14:43:28.537Z,7.43
2022-08-27T14:45:57.003Z,7.38
2022-08-27T14:48:28.602Z,7.40
2022-08-27T14:50:57.078Z,7.63
2022-08-27T14:53:24.651Z,7.72
2022-08-27T14:55:52.435Z,6.97
2022-08-27T14:58:21.503Z,7.72
2022-08-27T15:00:49.240Z,7.00
2022-08-27T15:03:18.381Z,6.70
2022-08-27T15:05:45.982Z,7.00
2022-08-27T15:08:15.825Z,6.85
2022-08-27T15:10:43.806Z,6.93
2022-08-27T15:13:11.879Z,6.78
2022-08-27T15:15:41.278Z,5.95
2022-08-27T15:18:09.217Z,5.65
2022-08-27T15:20:36.856Z,6.68
2022-08-27T15:23:04.464Z,6.40
2022-08-27T15:25:32.092Z,5.75
2022-08-27T15:27:59.669Z,6.57
2022-08-27T15:30:28.552Z,6.50
2022-08-27T15:32:57.507Z,6.80
2022-08-27T15:35:26.940Z,7.35
2022-08-27T15:37:54.971Z,5.78
2022-08-27T15:40:23.882Z,4.90
2022-08-27T15:42:54.397Z,3.90
2022-08-27T15:45:22.091Z,2.67
2022-08-27T15:47:53.436Z,2.90
2022-08-27T15:50:22.462Z,3.22
2022-08-27T15:52:52.526Z,2.60
2022-08-27T15:55:23.131Z,2.92
2022-08-27T15:57:50.736Z,2.92
2022-08-27T16:00:18.969Z,3.03
2022-08-27T16:02:46.973Z,3.25
2022-08-27T16:05:15.672Z,3.20
2022-08-27T16:07:44.632Z,3.60
2022-08-27T16:10:12.920Z,3.37
2022-08-27T16:12:40.501Z,3.20
2022-08-27T16:15:08.766Z,3.07
2022-08-27T16:17:36.450Z,2.70
2022-08-27T16:20:04.655Z,2.63
2022-08-27T16:22:32.263Z,2.40
2022-08-27T16:25:01.380Z,2.20
2022-08-27T16:27:28.943Z,1.98
2022-08-27T16:29:56.639Z,2.03
2022-08-27T16:32:25.026Z,2.45
2022-08-27T16:34:55.851Z,3.07
2022-08-27T16:37:23.996Z,2.80
2022-08-27T16:39:51.614Z,2.43
2022-08-27T16:42:20.819Z,2.30
2022-08-27T16:44:48.459Z,2.40
2022-08-27T16:47:16.041Z,2.30
2022-08-27T16:50:01.484Z,2.80
2022-08-27T16:52:30.014Z,3.17
2022-08-27T16:54:57.636Z,3.17
2022-08-27T16:57:26.615Z,3.67
2022-08-27T16:59:55.668Z,2.90
2022-08-27T17:02:30.156Z,2.87
2022-08-27T17:05:17.367Z,2.87
2022-08-27T17:07:47.858Z,3.43
2022-08-27T17:10:17.170Z,3.33
2022-08-27T17:12:47.620Z,3.13
2022-08-27T17:15:16.102Z,3.03
2022-08-27T17:17:43.715Z,3.60
2022-08-27T17:20:11.698Z,3.90
2022-08-27T17:22:39.495Z,3.47
2022-08-27T17:25:07.739Z,3.60
2022-08-27T17:27:35.376Z,3.70
2022-08-27T17:30:05.727Z,3.90
2022-08-27T17:32:35.828Z,3.40
2022-08-27T17:35:06.106Z,3.90
2022-08-27T17:37:34.133Z,3.83
2022-08-27T17:40:02.762Z,3.50
2022-08-27T17:42:30.997Z,4.03
2022-08-27T17:44:58.786Z,4.10
2022-08-27T17:47:27.782Z,4.40
2022-08-27T17:49:55.388Z,3.90
2022-08-27T17:52:23.308Z,4.10
2022-08-27T17:54:52.084Z,4.33
2022-08-27T17:57:20.593Z,4.17
2022-08-27T17:59:48.188Z,4.00
2022-08-27T18:02:17.919Z,3.90
2022-08-27T18:04:46.933Z,4.00
2022-08-27T18:07:15.243Z,4.00
2022-08-27T18:09:43.010Z,4.07
2022-08-27T18:12:11.994Z,4.60
2022-08-27T18:14:39.565Z,4.20
2022-08-27T18:17:07.197Z,3.70
2022-08-27T18:19:35.279Z,4.23
2022-08-27T18:22:06.603Z,5.60
2022-08-27T18:24:34.211Z,4.57
2022-08-27T18:27:01.983Z,4.80
2022-08-27T18:29:29.770Z,4.70
2022-08-27T18:31:57.341Z,5.23
2022-08-27T18:34:24.940Z,5.07
2022-08-27T18:36:52.511Z,5.33
2022-08-27T18:39:21.471Z,5.57
2022-08-27T18:41:53.598Z,5.40
2022-08-27T18:44:21.196Z,5.93
2022-08-27T18:46:48.761Z,5.77
2022-08-27T18:49:16.340Z,5.73
2022-08-27T18:51:46.170Z,5.60
2022-08-27T18:54:16.992Z,4.90
2022-08-27T18:56:46.024Z,5.50
2022-08-27T18:59:13.715Z,5.30
2022-08-27T19:01:41.466Z,5.20
2022-08-27T19:04:10.239Z,5.77
2022-08-27T19:06:37.860Z,5.50
2022-08-27T19:09:05.572Z,5.73
2022-08-27T19:11:33.155Z,5.40
2022-08-27T19:14:02.105Z,5.47
2022-08-27T19:16:34.591Z,5.50
2022-08-27T19:19:02.204Z,5.37
2022-08-27T19:21:29.779Z,5.47
2022-08-27T19:23:57.989Z,6.17
2022-08-27T19:26:26.255Z,6.73
2022-08-27T19:28:53.837Z,6.33
2022-08-27T19:31:22.991Z,6.20
2022-08-27T19:33:50.640Z,7.57
2022-08-27T19:36:19.289Z,6.97
2022-08-27T19:38:47.179Z,7.07
2022-08-27T19:41:14.801Z,6.60
2022-08-27T19:43:44.737Z,6.73
2022-08-27T19:46:14.253Z,6.47
2022-08-27T19:48:43.262Z,6.17
2022-08-27T19:51:11.011Z,6.83
2022-08-27T19:53:39.019Z,6.00
2022-08-27T19:56:06.975Z,6.10
2022-08-27T19:58:34.568Z,6.57
2022-08-27T20:01:02.291Z,5.30
2022-08-27T20:03:29.917Z,6.63
2022-08-27T20:05:58.912Z,5.80
2022-08-27T20:08:26.478Z,6.70
2022-08-27T20:10:54.103Z,6.03
2022-08-27T20:13:21.675Z,6.33
2022-08-27T20:15:49.795Z,6.80
2022-08-27T20:18:18.564Z,6.07
2022-08-27T20:20:46.407Z,6.77
2022-08-27T20:23:15.662Z,6.70
2022-08-27T20:25:44.630Z,6.57
2022-08-27T20:28:37.878Z,6.60
2022-08-27T20:31:01.531Z,5.40
2022-08-27T20:33:29.175Z,6.37
2022-08-27T20:35:57.451Z,5.73
2022-08-27T20:38:26.419Z,5.50
2022-08-27T20:40:54.028Z,5.30
2022-08-27T20:43:21.590Z,5.10
2022-08-27T20:45:49.258Z,5.73
2022-08-27T20:48:16.841Z,5.30
2022-08-27T20:50:44.508Z,5.30
2022-08-27T20:53:12.804Z,6.07
2022-08-27T20:55:41.789Z,6.03
2022-08-27T20:58:26.727Z,6.23
2022-08-27T21:00:55.155Z,5.63
2022-08-27T21:03:23.007Z,6.40
2022-08-27T21:05:50.740Z,6.50
2022-08-27T21:08:19.203Z,6.77
2022-08-27T21:10:49.299Z,6.87
2022-08-27T21:13:17.269Z,6.60
2022-08-27T21:15:44.859Z,6.80
2022-08-27T21:18:13.134Z,7.30
2022-08-27T21:20:41.384Z,6.70
2022-08-27T21:23:09.526Z,7.60
2022-08-27T21:25:37.140Z,7.27
2022-08-27T21:28:07.381Z,6.47
2022-08-27T21:30:35.126Z,7.10
2022-08-27T21:33:04.187Z,7.03
2022-08-27T21:35:32.747Z,6.53
2022-08-27T21:38:01.701Z,7.47
2022-08-27T21:40:29.859Z,7.27
2022-08-27T21:42:57.854Z,7.03
2022-08-27T21:45:27.446Z,7.87
2022-08-27T21:47:55.184Z,8.00
2022-08-27T21:50:23.435Z,7.77
2022-08-27T21:52:51.332Z,7.53
2022-08-27T21:55:19.365Z,7.17
2022-08-27T21:57:47.079Z,8.10
2022-08-27T22:00:22.427Z,8.30
2022-08-27T22:02:51.453Z,8.20
2022-08-27T22:05:19.095Z,9.27
2022-08-27T22:07:46.705Z,7.73
2022-08-27T22:10:14.324Z,7.13
2022-08-27T22:12:42.083Z,6.50
2022-08-27T22:15:11.136Z,6.30
2022-08-27T22:17:38.748Z,6.80
2022-08-27T22:20:09.320Z,7.37
2022-08-27T22:22:36.948Z,7.60
2022-08-27T22:25:05.079Z,7.27
2022-08-27T22:27:32.682Z,7.43
2022-08-27T22:30:00.245Z,7.97
2022-08-27T22:32:27.879Z,7.77
2022-08-27T22:34:55.454Z,7.13
2022-08-27T22:37:24.437Z,8.63
2022-08-27T22:39:52.245Z,7.73
2022-08-27T22:42:19.919Z,8.43
2022-08-27T22:44:47.765Z,7.80
2022-08-27T22:47:15.628Z,8.10
2022-08-27T22:49:43.284Z,7.23
2022-08-27T22:52:10.991Z,6.97
2022-08-27T22:54:39.989Z,6.73
2022-08-27T22:57:10.439Z,6.63
2022-08-27T22:59:38.581Z,7.03
2022-08-27T23:02:08.306Z,6.43
2022-08-27T23:04:54.078Z,6.23
2022-08-27T23:07:22.402Z,6.13
2022-08-27T23:09:51.386Z,5.93
2022-08-27T23:12:19.720Z,5.87
2022-08-27T23:14:47.359Z,5.47
2022-08-27T23:17:15.980Z,5.53
2022-08-27T23:19:43.637Z,6.30
2022-08-27T23:22:11.240Z,5.20
2022-08-27T23:24:59.290Z,5.63
2022-08-27T23:27:29.769Z,5.57
2022-08-27T23:29:57.841Z,5.43
2022-08-27T23:32:25.424Z,4.70
2022-08-27T23:34:53.556Z,4.83
2022-08-27T23:37:21.159Z,5.00
2022-08-27T23:39:48.784Z,4.90
2022-08-27T23:42:18.471Z,4.87
2022-08-27T23:44:47.661Z,5.13
2022-08-27T23:47:15.309Z,5.63
2022-08-27T23:49:43.639Z,5.50
2022-08-27T23:52:11.874Z,5.13
2022-08-27T23:54:39.776Z,6.20
2022-08-27T23:57:07.470Z,6.13
2022-08-27T23:59:35.170Z,5.77
